sensor_id;sensor_type;location;lat;lon;timestamp;pressure;altitude;pressure_sealevel;temperature;humidity
78888;BME280;68276;49.326;8.690;2023-06-14T00:00:09;99785.03;;;20.14;37.07
78888;BME280;68276;49.326;8.690;2023-06-14T00:02:38;99778.31;;;20.21;37.25
78888;BME280;68276;49.326;8.690;2023-06-14T00:05:05;99789.38;;;20.10;38.12
78888;BME280;68276;49.326;8.690;2023-06-14T00:07:38;99778.94;;;20.02;37.64
78888;BME280;68276;49.326;8.690;2023-06-14T00:10:08;99786.66;;;20.10;37.70
78888;BME280;68276;49.326;8.690;2023-06-14T00:12:33;99777.66;;;20.09;38.18
78888;BME280;68276;49.326;8.690;2023-06-14T00:14:59;99773.56;;;20.07;37.52
78888;BME280;68276;49.326;8.690;2023-06-14T00:17:27;99777.84;;;19.98;37.65
78888;BME280;68276;49.326;8.690;2023-06-14T00:19:58;99769.38;;;19.99;38.90
78888;BME280;68276;49.326;8.690;2023-06-14T00:22:24;99774.06;;;20.04;37.67
78888;BME280;68276;49.326;8.690;2023-06-14T00:24:53;99773.25;;;20.03;37.91
78888;BME280;68276;49.326;8.690;2023-06-14T00:27:18;99769.56;;;19.88;38.18
78888;BME280;68276;49.326;8.690;2023-06-14T00:29:43;99772.31;;;19.88;38.15
78888;BME280;68276;49.326;8.690;2023-06-14T00:32:09;99777.53;;;19.94;38.48
78888;BME280;68276;49.326;8.690;2023-06-14T00:34:34;99766.25;;;19.81;38.30
78888;BME280;68276;49.326;8.690;2023-06-14T00:37:00;99770.56;;;19.77;38.31
78888;BME280;68276;49.326;8.690;2023-06-14T00:39:26;99762.16;;;19.83;38.26
78888;BME280;68276;49.326;8.690;2023-06-14T00:41:52;99757.56;;;19.89;38.28
78888;BME280;68276;49.326;8.690;2023-06-14T00:44:17;99758.50;;;19.73;38.48
78888;BME280;68276;49.326;8.690;2023-06-14T00:46:44;99762.09;;;19.78;38.38
78888;BME280;68276;49.326;8.690;2023-06-14T00:49:10;99754.25;;;19.82;38.55
78888;BME280;68276;49.326;8.690;2023-06-14T00:51:37;99758.41;;;19.89;38.12
78888;BME280;68276;49.326;8.690;2023-06-14T00:54:05;99762.19;;;19.88;38.00
78888;BME280;68276;49.326;8.690;2023-06-14T00:56:30;99758.91;;;19.86;38.32
78888;BME280;68276;49.326;8.690;2023-06-14T00:58:56;99755.50;;;20.01;39.01
78888;BME280;68276;49.326;8.690;2023-06-14T01:01:23;99763.41;;;20.02;37.76
78888;BME280;68276;49.326;8.690;2023-06-14T01:03:49;99762.75;;;19.90;38.10
78888;BME280;68276;49.326;8.690;2023-06-14T01:06:49;99762.09;;;19.78;38.39
78888;BME280;68276;49.326;8.690;2023-06-14T01:11:59;99760.81;;;19.86;38.18
78888;BME280;68276;49.326;8.690;2023-06-14T01:14:27;99755.09;;;19.87;38.09
78888;BME280;68276;49.326;8.690;2023-06-14T01:16:54;99759.22;;;19.90;37.81
78888;BME280;68276;49.326;8.690;2023-06-14T01:19:20;99757.50;;;19.79;38.05
78888;BME280;68276;49.326;8.690;2023-06-14T01:21:48;99756.03;;;19.71;38.54
78888;BME280;68276;49.326;8.690;2023-06-14T01:24:16;99758.41;;;19.63;38.30
78888;BME280;68276;49.326;8.690;2023-06-14T01:26:41;99764.44;;;19.65;38.41
78888;BME280;68276;49.326;8.690;2023-06-14T01:29:12;99754.88;;;19.62;38.42
78888;BME280;68276;49.326;8.690;2023-06-14T01:31:41;99762.78;;;19.64;38.25
78888;BME280;68276;49.326;8.690;2023-06-14T01:34:07;99755.97;;;19.61;38.16
78888;BME280;68276;49.326;8.690;2023-06-14T01:36:35;99761.72;;;19.65;38.90
78888;BME280;68276;49.326;8.690;2023-06-14T01:39:02;99763.34;;;19.66;37.90
78888;BME280;68276;49.326;8.690;2023-06-14T01:41:29;99762.03;;;19.68;38.13
78888;BME280;68276;49.326;8.690;2023-06-14T01:43:56;99755.38;;;19.59;38.17
78888;BME280;68276;49.326;8.690;2023-06-14T01:46:22;99763.22;;;19.51;38.58
78888;BME280;68276;49.326;8.690;2023-06-14T01:48:50;99761.63;;;19.55;38.43
78888;BME280;68276;49.326;8.690;2023-06-14T01:51:16;99763.47;;;19.49;38.53
78888;BME280;68276;49.326;8.690;2023-06-14T01:53:41;99757.41;;;19.42;38.65
78888;BME280;68276;49.326;8.690;2023-06-14T01:56:07;99765.25;;;19.38;38.77
78888;BME280;68276;49.326;8.690;2023-06-14T01:58:32;99764.38;;;19.33;38.78
78888;BME280;68276;49.326;8.690;2023-06-14T02:00:58;99764.69;;;19.36;38.76
78888;BME280;68276;49.326;8.690;2023-06-14T02:03:25;99758.47;;;19.41;39.10
78888;BME280;68276;49.326;8.690;2023-06-14T02:05:51;99753.78;;;19.36;38.83
78888;BME280;68276;49.326;8.690;2023-06-14T02:08:17;99753.28;;;19.39;38.82
78888;BME280;68276;49.326;8.690;2023-06-14T02:10:42;99760.31;;;19.35;38.81
78888;BME280;68276;49.326;8.690;2023-06-14T02:13:08;99759.19;;;19.31;39.15
78888;BME280;68276;49.326;8.690;2023-06-14T02:15:33;99757.56;;;19.30;39.25
78888;BME280;68276;49.326;8.690;2023-06-14T02:18:00;99760.94;;;19.43;38.57
78888;BME280;68276;49.326;8.690;2023-06-14T02:20:26;99762.53;;;19.38;38.82
78888;BME280;68276;49.326;8.690;2023-06-14T02:22:51;99751.63;;;19.38;38.78
78888;BME280;68276;49.326;8.690;2023-06-14T02:25:16;99747.19;;;19.32;38.87
78888;BME280;68276;49.326;8.690;2023-06-14T02:27:42;99756.94;;;19.28;39.22
78888;BME280;68276;49.326;8.690;2023-06-14T02:30:07;99756.75;;;19.13;39.42
78888;BME280;68276;49.326;8.690;2023-06-14T02:32:33;99752.50;;;19.22;39.37
78888;BME280;68276;49.326;8.690;2023-06-14T02:35:00;99752.72;;;19.16;39.43
78888;BME280;68276;49.326;8.690;2023-06-14T02:37:26;99750.78;;;19.11;39.55
78888;BME280;68276;49.326;8.690;2023-06-14T02:39:51;99745.81;;;19.08;39.73
78888;BME280;68276;49.326;8.690;2023-06-14T02:42:16;99751.78;;;19.05;40.10
78888;BME280;68276;49.326;8.690;2023-06-14T02:44:42;99746.00;;;19.02;39.91
78888;BME280;68276;49.326;8.690;2023-06-14T02:47:08;99750.13;;;19.04;39.81
78888;BME280;68276;49.326;8.690;2023-06-14T02:49:34;99751.19;;;19.03;40.12
78888;BME280;68276;49.326;8.690;2023-06-14T02:51:59;99745.69;;;18.98;40.23
78888;BME280;68276;49.326;8.690;2023-06-14T02:54:25;99749.50;;;18.97;40.25
78888;BME280;68276;49.326;8.690;2023-06-14T02:56:50;99746.16;;;18.90;40.31
78888;BME280;68276;49.326;8.690;2023-06-14T02:59:16;99747.41;;;18.83;40.48
78888;BME280;68276;49.326;8.690;2023-06-14T03:01:42;99757.28;;;18.89;40.62
78888;BME280;68276;49.326;8.690;2023-06-14T03:04:08;99763.41;;;18.79;41.04
78888;BME280;68276;49.326;8.690;2023-06-14T03:06:34;99767.47;;;18.77;40.96
78888;BME280;68276;49.326;8.690;2023-06-14T03:08:59;99756.81;;;18.75;41.08
78888;BME280;68276;49.326;8.690;2023-06-14T03:11:26;99764.84;;;18.65;41.32
78888;BME280;68276;49.326;8.690;2023-06-14T03:13:52;99763.66;;;18.56;41.50
78888;BME280;68276;49.326;8.690;2023-06-14T03:16:19;99767.56;;;18.65;41.72
78888;BME280;68276;49.326;8.690;2023-06-14T03:18:55;99778.66;;;18.59;41.65
78888;BME280;68276;49.326;8.690;2023-06-14T03:21:21;99782.44;;;18.58;41.86
78888;BME280;68276;49.326;8.690;2023-06-14T03:23:47;99783.41;;;18.68;41.60
78888;BME280;68276;49.326;8.690;2023-06-14T03:26:13;99784.47;;;18.67;41.37
78888;BME280;68276;49.326;8.690;2023-06-14T03:28:42;99788.69;;;18.58;41.57
78888;BME280;68276;49.326;8.690;2023-06-14T03:31:08;99783.25;;;18.58;41.58
78888;BME280;68276;49.326;8.690;2023-06-14T03:33:34;99798.91;;;18.51;41.86
78888;BME280;68276;49.326;8.690;2023-06-14T03:35:59;99795.66;;;18.49;42.13
78888;BME280;68276;49.326;8.690;2023-06-14T03:38:25;99796.78;;;18.53;41.80
78888;BME280;68276;49.326;8.690;2023-06-14T03:40:50;99807.66;;;18.53;42.24
78888;BME280;68276;49.326;8.690;2023-06-14T03:43:15;99805.38;;;18.45;42.45
78888;BME280;68276;49.326;8.690;2023-06-14T03:45:41;99809.72;;;18.46;42.75
78888;BME280;68276;49.326;8.690;2023-06-14T03:48:06;99813.69;;;18.39;42.56
78888;BME280;68276;49.326;8.690;2023-06-14T03:50:33;99816.88;;;18.36;42.76
78888;BME280;68276;49.326;8.690;2023-06-14T03:52:59;99825.78;;;18.31;42.75
78888;BME280;68276;49.326;8.690;2023-06-14T03:55:26;99830.06;;;18.27;43.05
78888;BME280;68276;49.326;8.690;2023-06-14T03:57:52;99834.69;;;18.26;42.45
78888;BME280;68276;49.326;8.690;2023-06-14T04:00:18;99833.88;;;18.26;43.16
78888;BME280;68276;49.326;8.690;2023-06-14T04:02:43;99844.75;;;18.26;43.25
78888;BME280;68276;49.326;8.690;2023-06-14T04:05:09;99843.81;;;18.20;43.21
78888;BME280;68276;49.326;8.690;2023-06-14T04:07:35;99848.09;;;18.16;43.38
78888;BME280;68276;49.326;8.690;2023-06-14T04:10:06;99852.56;;;18.39;44.62
78888;BME280;68276;49.326;8.690;2023-06-14T04:12:31;99852.97;;;18.31;44.65
78888;BME280;68276;49.326;8.690;2023-06-14T04:14:57;99851.81;;;18.27;44.62
78888;BME280;68276;49.326;8.690;2023-06-14T04:17:22;99853.53;;;18.16;45.18
78888;BME280;68276;49.326;8.690;2023-06-14T04:19:47;99853.53;;;18.16;45.90
78888;BME280;68276;49.326;8.690;2023-06-14T04:22:13;99864.56;;;18.10;46.72
78888;BME280;68276;49.326;8.690;2023-06-14T04:24:38;99878.00;;;18.00;46.90
78888;BME280;68276;49.326;8.690;2023-06-14T04:27:04;99879.41;;;17.74;47.63
78888;BME280;68276;49.326;8.690;2023-06-14T04:29:29;99885.72;;;17.63;48.07
78888;BME280;68276;49.326;8.690;2023-06-14T04:31:56;99890.56;;;17.61;47.82
78888;BME280;68276;49.326;8.690;2023-06-14T04:34:25;99885.47;;;17.65;47.81
78888;BME280;68276;49.326;8.690;2023-06-14T04:36:55;99894.38;;;17.88;46.10
78888;BME280;68276;49.326;8.690;2023-06-14T04:39:22;99895.31;;;17.82;45.94
78888;BME280;68276;49.326;8.690;2023-06-14T04:41:48;99894.84;;;17.85;46.21
78888;BME280;68276;49.326;8.690;2023-06-14T04:44:18;99892.94;;;17.86;46.24
78888;BME280;68276;49.326;8.690;2023-06-14T04:46:45;99887.16;;;17.82;46.70
78888;BME280;68276;49.326;8.690;2023-06-14T04:49:17;99890.22;;;17.86;46.96
78888;BME280;68276;49.326;8.690;2023-06-14T04:51:43;99900.16;;;17.80;47.08
78888;BME280;68276;49.326;8.690;2023-06-14T04:54:09;99897.84;;;17.72;47.60
78888;BME280;68276;49.326;8.690;2023-06-14T04:56:39;99891.22;;;17.80;47.11
78888;BME280;68276;49.326;8.690;2023-06-14T04:59:05;99899.81;;;17.88;47.48
78888;BME280;68276;49.326;8.690;2023-06-14T05:01:31;99904.50;;;17.93;47.73
78888;BME280;68276;49.326;8.690;2023-06-14T05:03:59;99907.97;;;18.05;47.47
78888;BME280;68276;49.326;8.690;2023-06-14T05:06:25;99913.41;;;18.05;47.19
78888;BME280;68276;49.326;8.690;2023-06-14T05:08:53;99912.47;;;18.11;47.15
78888;BME280;68276;49.326;8.690;2023-06-14T05:11:18;99914.50;;;18.04;47.63
78888;BME280;68276;49.326;8.690;2023-06-14T05:13:43;99918.56;;;18.18;47.36
78888;BME280;68276;49.326;8.690;2023-06-14T05:16:10;99915.91;;;18.06;47.24
78888;BME280;68276;49.326;8.690;2023-06-14T05:18:36;99914.41;;;17.99;47.89
78888;BME280;68276;49.326;8.690;2023-06-14T05:21:02;99913.66;;;18.03;47.37
78888;BME280;68276;49.326;8.690;2023-06-14T05:23:29;99918.00;;;18.16;47.38
78888;BME280;68276;49.326;8.690;2023-06-14T05:25:55;99918.22;;;18.14;47.16
78888;BME280;68276;49.326;8.690;2023-06-14T05:28:20;99907.03;;;18.11;47.19
78888;BME280;68276;49.326;8.690;2023-06-14T05:30:45;99921.66;;;18.10;47.17
78888;BME280;68276;49.326;8.690;2023-06-14T05:33:11;99925.47;;;18.09;47.52
78888;BME280;68276;49.326;8.690;2023-06-14T05:35:36;99929.28;;;18.24;47.42
78888;BME280;68276;49.326;8.690;2023-06-14T05:38:03;99920.97;;;18.31;47.46
78888;BME280;68276;49.326;8.690;2023-06-14T05:40:28;99928.47;;;18.24;47.82
78888;BME280;68276;49.326;8.690;2023-06-14T05:42:53;99931.44;;;18.39;47.57
78888;BME280;68276;49.326;8.690;2023-06-14T05:45:19;99933.31;;;18.50;47.07
78888;BME280;68276;49.326;8.690;2023-06-14T05:47:44;99938.41;;;18.63;47.44
78888;BME280;68276;49.326;8.690;2023-06-14T05:50:10;99938.59;;;18.73;46.56
78888;BME280;68276;49.326;8.690;2023-06-14T05:52:35;99943.53;;;18.76;46.35
78888;BME280;68276;49.326;8.690;2023-06-14T05:55:02;99942.03;;;18.69;46.37
78888;BME280;68276;49.326;8.690;2023-06-14T05:57:28;99944.03;;;18.73;46.21
78888;BME280;68276;49.326;8.690;2023-06-14T05:59:53;99937.75;;;18.89;46.54
78888;BME280;68276;49.326;8.690;2023-06-14T06:02:19;99938.00;;;19.04;46.00
78888;BME280;68276;49.326;8.690;2023-06-14T06:04:44;99941.13;;;19.13;46.18
78888;BME280;68276;49.326;8.690;2023-06-14T06:07:10;99937.06;;;19.15;46.48
78888;BME280;68276;49.326;8.690;2023-06-14T06:09:35;99950.09;;;19.30;46.04
78888;BME280;68276;49.326;8.690;2023-06-14T06:12:01;99947.03;;;19.26;45.34
78888;BME280;68276;49.326;8.690;2023-06-14T06:14:26;99955.56;;;19.30;45.49
78888;BME280;68276;49.326;8.690;2023-06-14T06:16:53;99954.84;;;19.39;45.79
78888;BME280;68276;49.326;8.690;2023-06-14T06:19:18;99954.84;;;19.39;45.40
78888;BME280;68276;49.326;8.690;2023-06-14T06:21:43;99958.66;;;19.38;45.31
78888;BME280;68276;49.326;8.690;2023-06-14T06:24:09;99958.66;;;19.38;45.80
78888;BME280;68276;49.326;8.690;2023-06-14T06:26:34;99960.69;;;19.48;45.48
78888;BME280;68276;49.326;8.690;2023-06-14T06:29:00;99959.41;;;19.72;45.55
78888;BME280;68276;49.326;8.690;2023-06-14T06:31:25;99960.00;;;20.01;44.99
78888;BME280;68276;49.326;8.690;2023-06-14T06:33:52;99956.34;;;19.69;44.56
78888;BME280;68276;49.326;8.690;2023-06-14T06:36:19;99960.84;;;19.80;45.31
78888;BME280;68276;49.326;8.690;2023-06-14T06:38:45;99965.28;;;19.86;44.59
78888;BME280;68276;49.326;8.690;2023-06-14T06:41:10;99974.47;;;20.01;44.39
78888;BME280;68276;49.326;8.690;2023-06-14T06:43:36;99970.09;;;19.79;44.00
78888;BME280;68276;49.326;8.690;2023-06-14T06:46:01;99967.41;;;20.05;44.18
78888;BME280;68276;49.326;8.690;2023-06-14T06:48:27;99968.75;;;20.24;43.43
78888;BME280;68276;49.326;8.690;2023-06-14T06:50:53;99971.94;;;20.16;43.53
78888;BME280;68276;49.326;8.690;2023-06-14T06:53:19;99981.00;;;20.22;42.46
78888;BME280;68276;49.326;8.690;2023-06-14T06:55:44;99970.72;;;20.29;42.69
78888;BME280;68276;49.326;8.690;2023-06-14T06:58:10;99987.31;;;20.54;42.20
78888;BME280;68276;49.326;8.690;2023-06-14T07:00:35;99982.25;;;20.68;41.63
78888;BME280;68276;49.326;8.690;2023-06-14T07:03:01;99980.38;;;20.68;42.19
78888;BME280;68276;49.326;8.690;2023-06-14T07:05:26;99984.66;;;20.91;41.83
78888;BME280;68276;49.326;8.690;2023-06-14T07:07:52;99983.47;;;21.08;41.65
78888;BME280;68276;49.326;8.690;2023-06-14T07:10:17;99986.00;;;21.20;40.79
78888;BME280;68276;49.326;8.690;2023-06-14T07:12:43;99986.69;;;21.00;41.16
78888;BME280;68276;49.326;8.690;2023-06-14T07:15:09;99992.06;;;20.95;41.04
78888;BME280;68276;49.326;8.690;2023-06-14T07:17:35;99986.03;;;21.25;40.66
78888;BME280;68276;49.326;8.690;2023-06-14T07:20:03;99995.28;;;21.19;40.43
78888;BME280;68276;49.326;8.690;2023-06-14T07:22:32;100004.72;;;21.38;39.70
78888;BME280;68276;49.326;8.690;2023-06-14T07:24:57;99995.28;;;21.60;39.57
78888;BME280;68276;49.326;8.690;2023-06-14T07:27:23;99998.59;;;21.63;39.97
78888;BME280;68276;49.326;8.690;2023-06-14T07:29:48;100004.59;;;21.64;39.62
78888;BME280;68276;49.326;8.690;2023-06-14T07:32:13;100009.97;;;21.49;39.82
78888;BME280;68276;49.326;8.690;2023-06-14T07:34:39;100009.03;;;21.76;39.55
78888;BME280;68276;49.326;8.690;2023-06-14T07:37:04;100008.16;;;21.70;39.52
78888;BME280;68276;49.326;8.690;2023-06-14T07:39:30;100009.09;;;21.81;39.36
78888;BME280;68276;49.326;8.690;2023-06-14T07:41:56;100011.75;;;21.76;39.05
78888;BME280;68276;49.326;8.690;2023-06-14T07:44:21;100013.28;;;21.51;39.85
78888;BME280;68276;49.326;8.690;2023-06-14T07:46:46;100009.63;;;21.78;39.31
78888;BME280;68276;49.326;8.690;2023-06-14T07:49:14;100014.09;;;21.99;39.41
78888;BME280;68276;49.326;8.690;2023-06-14T07:51:39;100015.41;;;21.86;38.66
78888;BME280;68276;49.326;8.690;2023-06-14T07:54:05;100015.81;;;22.20;39.03
78888;BME280;68276;49.326;8.690;2023-06-14T07:56:32;100007.63;;;22.25;38.39
78888;BME280;68276;49.326;8.690;2023-06-14T07:58:57;100016.66;;;22.30;38.88
78888;BME280;68276;49.326;8.690;2023-06-14T08:01:23;100015.50;;;22.11;38.79
78888;BME280;68276;49.326;8.690;2023-06-14T08:03:50;100019.63;;;22.19;37.71
78888;BME280;68276;49.326;8.690;2023-06-14T08:06:15;100018.31;;;22.31;37.04
78888;BME280;68276;49.326;8.690;2023-06-14T08:08:41;100018.44;;;21.95;37.66
78888;BME280;68276;49.326;8.690;2023-06-14T08:11:06;100017.19;;;22.17;37.52
78888;BME280;68276;49.326;8.690;2023-06-14T08:13:31;100014.63;;;21.96;37.60
78888;BME280;68276;49.326;8.690;2023-06-14T08:15:57;100013.91;;;22.25;37.22
78888;BME280;68276;49.326;8.690;2023-06-14T08:18:23;100016.94;;;22.34;37.41
78888;BME280;68276;49.326;8.690;2023-06-14T08:20:48;100015.66;;;22.61;37.49
78888;BME280;68276;49.326;8.690;2023-06-14T08:23:15;100020.34;;;22.86;36.67
78888;BME280;68276;49.326;8.690;2023-06-14T08:25:44;100016.25;;;22.89;36.35
78888;BME280;68276;49.326;8.690;2023-06-14T08:28:10;100023.13;;;23.16;36.28
78888;BME280;68276;49.326;8.690;2023-06-14T08:30:35;100017.63;;;23.11;36.23
78888;BME280;68276;49.326;8.690;2023-06-14T08:33:01;100019.28;;;22.82;36.33
78888;BME280;68276;49.326;8.690;2023-06-14T08:35:26;100018.72;;;23.05;36.02
78888;BME280;68276;49.326;8.690;2023-06-14T08:37:51;100022.56;;;23.09;35.99
78888;BME280;68276;49.326;8.690;2023-06-14T08:40:23;100020.34;;;23.41;35.70
78888;BME280;68276;49.326;8.690;2023-06-14T08:42:52;100015.97;;;23.50;35.25
78888;BME280;68276;49.326;8.690;2023-06-14T08:45:19;100012.41;;;23.55;35.42
78888;BME280;68276;49.326;8.690;2023-06-14T08:47:46;100018.19;;;23.28;35.12
78888;BME280;68276;49.326;8.690;2023-06-14T08:50:20;100015.13;;;23.65;36.08
78888;BME280;68276;49.326;8.690;2023-06-14T08:52:48;100011.47;;;23.84;34.34
78888;BME280;68276;49.326;8.690;2023-06-14T08:55:18;100018.91;;;23.84;34.78
78888;BME280;68276;49.326;8.690;2023-06-14T08:57:47;100025.84;;;23.51;34.71
78888;BME280;68276;49.326;8.690;2023-06-14T09:00:15;100017.00;;;23.69;34.62
78888;BME280;68276;49.326;8.690;2023-06-14T09:02:41;100023.53;;;23.94;34.19
78888;BME280;68276;49.326;8.690;2023-06-14T09:05:12;100018.28;;;24.07;34.81
78888;BME280;68276;49.326;8.690;2023-06-14T09:07:39;100020.22;;;23.97;35.06
78888;BME280;68276;49.326;8.690;2023-06-14T09:10:09;100012.28;;;23.90;34.85
78888;BME280;68276;49.326;8.690;2023-06-14T09:12:35;100019.84;;;24.23;33.38
78888;BME280;68276;49.326;8.690;2023-06-14T09:15:02;100018.09;;;23.78;33.34
78888;BME280;68276;49.326;8.690;2023-06-14T09:17:32;100019.13;;;24.03;32.70
78888;BME280;68276;49.326;8.690;2023-06-14T09:19:59;100023.53;;;23.89;33.25
78888;BME280;68276;49.326;8.690;2023-06-14T09:22:24;100023.41;;;24.29;32.90
78888;BME280;68276;49.326;8.690;2023-06-14T09:24:50;100011.25;;;24.40;32.91
78888;BME280;68276;49.326;8.690;2023-06-14T09:27:15;100019.72;;;23.79;33.55
78888;BME280;68276;49.326;8.690;2023-06-14T09:29:41;100034.22;;;24.10;33.17
78888;BME280;68276;49.326;8.690;2023-06-14T09:32:07;100025.25;;;24.38;32.75
78888;BME280;68276;49.326;8.690;2023-06-14T09:34:33;100020.97;;;24.76;32.31
78888;BME280;68276;49.326;8.690;2023-06-14T09:36:58;100026.75;;;25.08;32.01
78888;BME280;68276;49.326;8.690;2023-06-14T09:39:23;100020.59;;;24.87;32.23
78888;BME280;68276;49.326;8.690;2023-06-14T09:41:50;100023.66;;;24.32;32.23
78888;BME280;68276;49.326;8.690;2023-06-14T09:44:15;100022.56;;;24.28;32.05
78888;BME280;68276;49.326;8.690;2023-06-14T09:46:43;100011.63;;;24.72;32.05
78888;BME280;68276;49.326;8.690;2023-06-14T09:49:09;100021.00;;;24.71;31.92
78888;BME280;68276;49.326;8.690;2023-06-14T09:51:48;100021.63;;;24.97;32.16
78888;BME280;68276;49.326;8.690;2023-06-14T09:54:16;100019.88;;;24.72;31.78
78888;BME280;68276;49.326;8.690;2023-06-14T09:56:47;100022.66;;;25.39;31.75
78888;BME280;68276;49.326;8.690;2023-06-14T09:59:13;100022.47;;;24.92;31.33
78888;BME280;68276;49.326;8.690;2023-06-14T10:01:42;100029.41;;;25.18;30.54
78888;BME280;68276;49.326;8.690;2023-06-14T10:04:09;100024.16;;;25.22;29.87
78888;BME280;68276;49.326;8.690;2023-06-14T10:06:37;100020.97;;;25.10;30.23
78888;BME280;68276;49.326;8.690;2023-06-14T10:09:04;100023.41;;;24.29;30.57
78888;BME280;68276;49.326;8.690;2023-06-14T10:11:33;100025.63;;;25.14;29.79
78888;BME280;68276;49.326;8.690;2023-06-14T10:14:02;100021.75;;;25.49;29.59
78888;BME280;68276;49.326;8.690;2023-06-14T10:16:36;100010.06;;;25.28;29.86
78888;BME280;68276;49.326;8.690;2023-06-14T10:19:13;100015.53;;;25.38;30.13
78888;BME280;68276;49.326;8.690;2023-06-14T10:22:42;100013.81;;;25.42;30.36
78888;BME280;68276;49.326;8.690;2023-06-14T10:25:12;100013.75;;;25.47;29.43
78888;BME280;68276;49.326;8.690;2023-06-14T10:27:38;100009.44;;;25.41;29.60
78888;BME280;68276;49.326;8.690;2023-06-14T10:30:05;100009.56;;;25.55;29.34
78888;BME280;68276;49.326;8.690;2023-06-14T10:32:33;100015.72;;;25.70;29.39
78888;BME280;68276;49.326;8.690;2023-06-14T10:35:04;100021.88;;;25.62;28.37
78888;BME280;68276;49.326;8.690;2023-06-14T10:37:30;100014.34;;;25.44;28.62
78888;BME280;68276;49.326;8.690;2023-06-14T10:39:56;100020.34;;;25.75;29.21
78888;BME280;68276;49.326;8.690;2023-06-14T10:42:21;100021.34;;;25.84;28.81
78888;BME280;68276;49.326;8.690;2023-06-14T10:44:52;100013.69;;;25.81;29.26
78888;BME280;68276;49.326;8.690;2023-06-14T10:47:34;100016.94;;;25.59;29.42
78888;BME280;68276;49.326;8.690;2023-06-14T10:50:07;100008.91;;;25.63;29.28
78888;BME280;68276;49.326;8.690;2023-06-14T10:52:40;100019.88;;;25.68;28.32
78888;BME280;68276;49.326;8.690;2023-06-14T10:55:11;100016.06;;;25.64;28.01
78888;BME280;68276;49.326;8.690;2023-06-14T10:57:50;100017.22;;;25.58;28.34
78888;BME280;68276;49.326;8.690;2023-06-14T11:00:27;100009.75;;;25.35;28.45
78888;BME280;68276;49.326;8.690;2023-06-14T11:05:54;100002.09;;;26.08;27.47
78888;BME280;68276;49.326;8.690;2023-06-14T11:11:08;100009.09;;;26.19;27.21
78888;BME280;68276;49.326;8.690;2023-06-14T11:13:38;100013.16;;;26.45;27.14
78888;BME280;68276;49.326;8.690;2023-06-14T11:16:10;100011.72;;;26.29;27.72
78888;BME280;68276;49.326;8.690;2023-06-14T11:18:37;100015.84;;;25.60;27.99
78888;BME280;68276;49.326;8.690;2023-06-14T11:21:02;99997.91;;;26.34;27.86
78888;BME280;68276;49.326;8.690;2023-06-14T11:23:28;100005.56;;;26.37;27.87
78888;BME280;68276;49.326;8.690;2023-06-14T11:25:53;100008.84;;;26.57;27.81
78888;BME280;68276;49.326;8.690;2023-06-14T11:28:18;100013.13;;;27.19;27.10
78888;BME280;68276;49.326;8.690;2023-06-14T11:30:49;100015.97;;;26.58;27.69
78888;BME280;68276;49.326;8.690;2023-06-14T11:33:18;100013.91;;;26.32;27.35
78888;BME280;68276;49.326;8.690;2023-06-14T11:35:44;100019.59;;;26.96;26.38
78888;BME280;68276;49.326;8.690;2023-06-14T11:38:10;100018.00;;;26.90;27.09
78888;BME280;68276;49.326;8.690;2023-06-14T11:40:37;100020.78;;;26.53;27.99
78888;BME280;68276;49.326;8.690;2023-06-14T11:43:03;100009.94;;;26.38;27.82
78888;BME280;68276;49.326;8.690;2023-06-14T11:45:30;100014.50;;;26.66;27.66
78888;BME280;68276;49.326;8.690;2023-06-14T11:47:56;100007.00;;;26.53;27.89
78888;BME280;68276;49.326;8.690;2023-06-14T11:50:22;100007.91;;;26.67;27.48
78888;BME280;68276;49.326;8.690;2023-06-14T11:53:01;100007.94;;;26.99;27.13
78888;BME280;68276;49.326;8.690;2023-06-14T11:55:36;100006.25;;;26.47;28.21
78888;BME280;68276;49.326;8.690;2023-06-14T11:58:01;100016.84;;;26.17;28.79
78888;BME280;68276;49.326;8.690;2023-06-14T12:00:28;100023.22;;;25.88;28.76
78888;BME280;68276;49.326;8.690;2023-06-14T12:02:54;100021.94;;;25.57;29.24
78888;BME280;68276;49.326;8.690;2023-06-14T12:05:23;100013.19;;;25.50;29.01
78888;BME280;68276;49.326;8.690;2023-06-14T12:07:50;100023.84;;;25.80;28.97
78888;BME280;68276;49.326;8.690;2023-06-14T12:10:18;100022.69;;;26.34;28.21
78888;BME280;68276;49.326;8.690;2023-06-14T12:12:44;100023.69;;;26.61;27.69
78888;BME280;68276;49.326;8.690;2023-06-14T12:15:10;100013.53;;;26.75;27.51
78888;BME280;68276;49.326;8.690;2023-06-14T12:17:37;100016.72;;;26.64;27.92
78888;BME280;68276;49.326;8.690;2023-06-14T12:20:11;100009.38;;;26.78;26.81
78888;BME280;68276;49.326;8.690;2023-06-14T12:22:46;100006.47;;;26.88;26.74
78888;BME280;68276;49.326;8.690;2023-06-14T12:25:23;100016.00;;;27.60;26.24
78888;BME280;68276;49.326;8.690;2023-06-14T12:27:52;100011.78;;;27.49;26.32
78888;BME280;68276;49.326;8.690;2023-06-14T12:30:18;100005.22;;;27.45;25.85
78888;BME280;68276;49.326;8.690;2023-06-14T12:32:43;100005.09;;;27.04;25.84
78888;BME280;68276;49.326;8.690;2023-06-14T12:35:09;99996.03;;;26.85;26.61
78888;BME280;68276;49.326;8.690;2023-06-14T12:37:34;99999.16;;;26.97;27.44
78888;BME280;68276;49.326;8.690;2023-06-14T12:40:00;100010.09;;;26.28;27.92
78888;BME280;68276;49.326;8.690;2023-06-14T12:42:25;100001.84;;;25.57;28.77
78888;BME280;68276;49.326;8.690;2023-06-14T12:44:50;100008.31;;;26.18;28.15
78888;BME280;68276;49.326;8.690;2023-06-14T12:47:16;100012.78;;;26.33;28.30
78888;BME280;68276;49.326;8.690;2023-06-14T12:49:41;100016.22;;;26.99;27.03
78888;BME280;68276;49.326;8.690;2023-06-14T12:52:07;100007.13;;;27.76;25.65
78888;BME280;68276;49.326;8.690;2023-06-14T12:54:32;100009.94;;;27.31;26.48
78888;BME280;68276;49.326;8.690;2023-06-14T12:56:58;100001.19;;;27.69;25.46
78888;BME280;68276;49.326;8.690;2023-06-14T12:59:23;99998.16;;;27.98;25.21
78888;BME280;68276;49.326;8.690;2023-06-14T13:01:49;100002.91;;;28.47;25.00